KTTD

Portland-Troutdale Airport

Portland, Oregon, USA
KTTD 231121Z 2312/2412 09004KT P6SM SKC FM231700 29005KT P6SM SKC
Issued Valid From Valid To
Jul-23 @ 11:21 UTC
(2 hours ago)
Jul-23 @ 12:00 UTC
(2 hours ago)
Jul-24 @ 12:00 UTC
(in 22 hours)
Jul-23 @ 12:00 to Jul-23 @ 17:00
KTTD 231121Z 2312/2412 09004KT P6SM SKC
Wind Visibility Clouds
90° at 4 knots Greater than 6 miles
  • Clear skies
From Jul-23 @ 17:00 to Jul-24 @ 12:00
FM231700 29005KT P6SM SKC
Wind Visibility Clouds
290° at 5 knots Greater than 6 miles
  • Clear skies
KTTD 231121Z 2312/2412 09004KT P6SM SKC FM231700 29005KT P6SM SKC
Issued Jul-23 @ 11:21 UTC
(2 hours ago)
Valid From Jul-23 @ 12:00 UTC
(2 hours ago)
Valid To Jul-24 @ 12:00 UTC
(in 22 hours)
Jul-23 @ 12:00 - Jul-23 @ 17:00
Wind Visibility
90° at 4 knots Greater than 6 miles
Clouds
  • Clear skies
From Jul-23 @ 17:00 - Jul-24 @ 12:00
Wind Visibility
290° at 5 knots Greater than 6 miles
Clouds
  • Clear skies